sensor_id;sensor_type;location;lat;lon;timestamp;P1;durP1;ratioP1;P2;durP2;ratioP2
81952;SDS011;71454;55.476;14.282;2024-03-02T00:00:22;71.00;;;30.70;;
81952;SDS011;71454;55.476;14.282;2024-03-02T00:02:48;68.10;;;29.98;;
81952;SDS011;71454;55.476;14.282;2024-03-02T00:05:17;72.47;;;28.10;;
81952;SDS011;71454;55.476;14.282;2024-03-02T00:07:43;62.42;;;28.15;;
81952;SDS011;71454;55.476;14.282;2024-03-02T00:10:09;69.95;;;29.98;;
81952;SDS011;71454;55.476;14.282;2024-03-02T00:12:38;71.45;;;29.05;;
81952;SDS011;71454;55.476;14.282;2024-03-02T00:15:21;68.53;;;30.85;;
81952;SDS011;71454;55.476;14.282;2024-03-02T00:17:54;67.40;;;28.92;;
81952;SDS011;71454;55.476;14.282;2024-03-02T00:20:21;72.88;;;30.35;;
81952;SDS011;71454;55.476;14.282;2024-03-02T00:22:47;71.80;;;29.50;;
81952;SDS011;71454;55.476;14.282;2024-03-02T00:25:12;71.53;;;29.80;;
81952;SDS011;71454;55.476;14.282;2024-03-02T00:27:38;70.32;;;30.17;;
81952;SDS011;71454;55.476;14.282;2024-03-02T00:30:13;65.13;;;29.83;;
81952;SDS011;71454;55.476;14.282;2024-03-02T00:32:51;72.95;;;31.17;;
81952;SDS011;71454;55.476;14.282;2024-03-02T00:35:19;78.47;;;31.55;;
81952;SDS011;71454;55.476;14.282;2024-03-02T00:37:46;71.03;;;30.30;;
81952;SDS011;71454;55.476;14.282;2024-03-02T00:40:11;69.10;;;29.50;;
81952;SDS011;71454;55.476;14.282;2024-03-02T00:42:38;70.07;;;30.90;;
81952;SDS011;71454;55.476;14.282;2024-03-02T00:45:07;73.78;;;31.42;;
81952;SDS011;71454;55.476;14.282;2024-03-02T00:47:32;72.32;;;32.03;;
81952;SDS011;71454;55.476;14.282;2024-03-02T00:50:02;73.10;;;31.45;;
81952;SDS011;71454;55.476;14.282;2024-03-02T00:52:28;77.53;;;32.65;;
81952;SDS011;71454;55.476;14.282;2024-03-02T00:54:56;73.88;;;31.05;;
81952;SDS011;71454;55.476;14.282;2024-03-02T00:57:22;75.53;;;31.67;;
81952;SDS011;71454;55.476;14.282;2024-03-02T00:59:48;71.95;;;31.58;;
81952;SDS011;71454;55.476;14.282;2024-03-02T01:02:13;64.75;;;30.20;;
81952;SDS011;71454;55.476;14.282;2024-03-02T01:04:39;65.65;;;29.92;;
81952;SDS011;71454;55.476;14.282;2024-03-02T01:07:04;71.00;;;32.47;;
81952;SDS011;71454;55.476;14.282;2024-03-02T01:09:29;68.90;;;28.80;;
81952;SDS011;71454;55.476;14.282;2024-03-02T01:11:55;66.57;;;28.27;;
81952;SDS011;71454;55.476;14.282;2024-03-02T01:14:20;63.27;;;30.03;;
81952;SDS011;71454;55.476;14.282;2024-03-02T01:16:45;61.03;;;29.17;;
81952;SDS011;71454;55.476;14.282;2024-03-02T01:19:10;65.32;;;28.70;;
81952;SDS011;71454;55.476;14.282;2024-03-02T01:21:36;63.30;;;26.13;;
81952;SDS011;71454;55.476;14.282;2024-03-02T01:24:01;63.35;;;29.70;;
81952;SDS011;71454;55.476;14.282;2024-03-02T01:26:26;65.37;;;28.67;;
81952;SDS011;71454;55.476;14.282;2024-03-02T01:28:51;72.50;;;28.73;;
81952;SDS011;71454;55.476;14.282;2024-03-02T01:31:17;75.43;;;30.17;;
81952;SDS011;71454;55.476;14.282;2024-03-02T01:33:42;73.23;;;29.57;;
81952;SDS011;71454;55.476;14.282;2024-03-02T01:36:07;70.03;;;29.33;;
81952;SDS011;71454;55.476;14.282;2024-03-02T01:38:33;70.28;;;28.73;;
81952;SDS011;71454;55.476;14.282;2024-03-02T01:40:58;72.05;;;31.15;;
81952;SDS011;71454;55.476;14.282;2024-03-02T01:43:24;74.13;;;29.37;;
81952;SDS011;71454;55.476;14.282;2024-03-02T01:45:49;71.13;;;30.73;;
81952;SDS011;71454;55.476;14.282;2024-03-02T01:48:14;82.43;;;32.30;;
81952;SDS011;71454;55.476;14.282;2024-03-02T01:50:40;72.68;;;29.13;;
81952;SDS011;71454;55.476;14.282;2024-03-02T01:53:05;68.13;;;30.52;;
81952;SDS011;71454;55.476;14.282;2024-03-02T01:55:30;74.80;;;30.33;;
81952;SDS011;71454;55.476;14.282;2024-03-02T01:57:56;73.28;;;29.30;;
81952;SDS011;71454;55.476;14.282;2024-03-02T02:00:21;74.10;;;30.80;;
81952;SDS011;71454;55.476;14.282;2024-03-02T02:02:50;69.47;;;30.35;;
81952;SDS011;71454;55.476;14.282;2024-03-02T02:05:15;89.95;;;32.15;;
81952;SDS011;71454;55.476;14.282;2024-03-02T02:07:41;71.18;;;29.77;;
81952;SDS011;71454;55.476;14.282;2024-03-02T02:10:07;70.25;;;30.80;;
81952;SDS011;71454;55.476;14.282;2024-03-02T02:12:32;71.95;;;29.30;;
81952;SDS011;71454;55.476;14.282;2024-03-02T02:14:58;66.90;;;30.40;;
81952;SDS011;71454;55.476;14.282;2024-03-02T02:17:23;66.90;;;30.83;;
81952;SDS011;71454;55.476;14.282;2024-03-02T02:19:48;71.18;;;30.42;;
81952;SDS011;71454;55.476;14.282;2024-03-02T02:22:13;79.72;;;32.80;;
81952;SDS011;71454;55.476;14.282;2024-03-02T02:24:42;74.13;;;31.00;;
81952;SDS011;71454;55.476;14.282;2024-03-02T02:27:07;76.18;;;32.50;;
81952;SDS011;71454;55.476;14.282;2024-03-02T02:29:33;79.20;;;32.00;;
81952;SDS011;71454;55.476;14.282;2024-03-02T02:31:58;81.10;;;31.70;;
81952;SDS011;71454;55.476;14.282;2024-03-02T02:34:23;76.13;;;32.75;;
81952;SDS011;71454;55.476;14.282;2024-03-02T02:36:49;76.23;;;31.37;;
81952;SDS011;71454;55.476;14.282;2024-03-02T02:39:15;78.68;;;32.58;;
81952;SDS011;71454;55.476;14.282;2024-03-02T02:41:41;77.07;;;31.42;;
81952;SDS011;71454;55.476;14.282;2024-03-02T02:44:07;76.13;;;33.03;;
81952;SDS011;71454;55.476;14.282;2024-03-02T02:46:32;76.10;;;33.65;;
81952;SDS011;71454;55.476;14.282;2024-03-02T02:48:57;71.72;;;32.70;;
81952;SDS011;71454;55.476;14.282;2024-03-02T02:51:22;85.80;;;37.50;;
81952;SDS011;71454;55.476;14.282;2024-03-02T02:53:50;86.25;;;33.17;;
81952;SDS011;71454;55.476;14.282;2024-03-02T02:56:15;90.87;;;34.43;;
81952;SDS011;71454;55.476;14.282;2024-03-02T02:58:40;94.93;;;34.10;;
81952;SDS011;71454;55.476;14.282;2024-03-02T03:01:06;88.80;;;33.80;;
81952;SDS011;71454;55.476;14.282;2024-03-02T03:03:32;87.88;;;32.17;;
81952;SDS011;71454;55.476;14.282;2024-03-02T03:05:58;87.38;;;33.55;;
81952;SDS011;71454;55.476;14.282;2024-03-02T03:08:23;86.17;;;33.87;;
81952;SDS011;71454;55.476;14.282;2024-03-02T03:10:48;87.10;;;33.27;;
81952;SDS011;71454;55.476;14.282;2024-03-02T03:13:14;92.50;;;35.58;;
81952;SDS011;71454;55.476;14.282;2024-03-02T03:15:39;97.87;;;36.63;;
81952;SDS011;71454;55.476;14.282;2024-03-02T03:18:05;90.30;;;35.10;;
81952;SDS011;71454;55.476;14.282;2024-03-02T03:20:30;85.97;;;33.75;;
81952;SDS011;71454;55.476;14.282;2024-03-02T03:22:56;92.22;;;35.13;;
81952;SDS011;71454;55.476;14.282;2024-03-02T03:25:21;90.93;;;34.17;;
81952;SDS011;71454;55.476;14.282;2024-03-02T03:27:46;88.10;;;35.07;;
81952;SDS011;71454;55.476;14.282;2024-03-02T03:30:12;92.18;;;35.45;;
81952;SDS011;71454;55.476;14.282;2024-03-02T03:32:37;83.72;;;33.38;;
81952;SDS011;71454;55.476;14.282;2024-03-02T03:35:03;89.07;;;31.60;;
81952;SDS011;71454;55.476;14.282;2024-03-02T03:37:28;98.30;;;35.80;;
81952;SDS011;71454;55.476;14.282;2024-03-02T03:39:57;92.85;;;35.65;;
81952;SDS011;71454;55.476;14.282;2024-03-02T03:42:23;84.78;;;33.70;;
81952;SDS011;71454;55.476;14.282;2024-03-02T03:44:48;85.00;;;30.87;;
81952;SDS011;71454;55.476;14.282;2024-03-02T03:47:13;94.13;;;33.40;;
81952;SDS011;71454;55.476;14.282;2024-03-02T03:49:38;100.38;;;34.63;;
81952;SDS011;71454;55.476;14.282;2024-03-02T03:52:04;91.57;;;34.50;;
81952;SDS011;71454;55.476;14.282;2024-03-02T03:54:29;93.15;;;34.05;;
81952;SDS011;71454;55.476;14.282;2024-03-02T03:56:54;97.32;;;35.65;;
81952;SDS011;71454;55.476;14.282;2024-03-02T03:59:19;94.20;;;36.17;;
81952;SDS011;71454;55.476;14.282;2024-03-02T04:01:45;88.27;;;34.27;;
81952;SDS011;71454;55.476;14.282;2024-03-02T04:04:10;93.37;;;36.17;;
81952;SDS011;71454;55.476;14.282;2024-03-02T04:06:35;90.95;;;34.80;;
81952;SDS011;71454;55.476;14.282;2024-03-02T04:09:01;96.78;;;35.88;;
81952;SDS011;71454;55.476;14.282;2024-03-02T04:11:26;97.75;;;35.90;;
81952;SDS011;71454;55.476;14.282;2024-03-02T04:13:51;95.07;;;35.53;;
81952;SDS011;71454;55.476;14.282;2024-03-02T04:16:16;95.97;;;34.73;;
81952;SDS011;71454;55.476;14.282;2024-03-02T04:18:42;100.55;;;37.42;;
81952;SDS011;71454;55.476;14.282;2024-03-02T04:21:07;98.73;;;36.57;;
81952;SDS011;71454;55.476;14.282;2024-03-02T04:23:32;106.22;;;37.15;;
81952;SDS011;71454;55.476;14.282;2024-03-02T04:25:58;100.72;;;36.83;;
81952;SDS011;71454;55.476;14.282;2024-03-02T04:28:23;98.73;;;37.47;;
81952;SDS011;71454;55.476;14.282;2024-03-02T04:30:48;103.53;;;39.50;;
81952;SDS011;71454;55.476;14.282;2024-03-02T04:33:13;103.50;;;37.50;;
81952;SDS011;71454;55.476;14.282;2024-03-02T04:35:39;93.03;;;34.60;;
81952;SDS011;71454;55.476;14.282;2024-03-02T04:38:04;97.57;;;36.87;;
81952;SDS011;71454;55.476;14.282;2024-03-02T04:40:29;102.70;;;37.45;;
81952;SDS011;71454;55.476;14.282;2024-03-02T04:42:54;93.40;;;36.87;;
81952;SDS011;71454;55.476;14.282;2024-03-02T04:45:20;93.77;;;36.87;;
81952;SDS011;71454;55.476;14.282;2024-03-02T04:47:45;96.70;;;36.90;;
81952;SDS011;71454;55.476;14.282;2024-03-02T04:50:10;97.45;;;37.42;;
81952;SDS011;71454;55.476;14.282;2024-03-02T04:52:36;91.13;;;37.27;;
81952;SDS011;71454;55.476;14.282;2024-03-02T04:55:01;99.25;;;37.45;;
81952;SDS011;71454;55.476;14.282;2024-03-02T04:57:49;97.30;;;38.88;;
81952;SDS011;71454;55.476;14.282;2024-03-02T05:00:16;98.68;;;38.13;;
81952;SDS011;71454;55.476;14.282;2024-03-02T05:02:41;88.85;;;37.90;;
81952;SDS011;71454;55.476;14.282;2024-03-02T05:05:06;84.03;;;36.40;;
81952;SDS011;71454;55.476;14.282;2024-03-02T05:07:31;91.35;;;35.83;;
81952;SDS011;71454;55.476;14.282;2024-03-02T05:09:57;85.57;;;36.83;;
81952;SDS011;71454;55.476;14.282;2024-03-02T05:12:22;85.57;;;36.30;;
81952;SDS011;71454;55.476;14.282;2024-03-02T05:15:21;84.63;;;34.75;;
81952;SDS011;71454;55.476;14.282;2024-03-02T05:17:47;74.85;;;32.03;;
81952;SDS011;71454;55.476;14.282;2024-03-02T05:20:12;79.85;;;34.90;;
81952;SDS011;71454;55.476;14.282;2024-03-02T05:22:38;78.10;;;36.42;;
81952;SDS011;71454;55.476;14.282;2024-03-02T05:25:04;76.05;;;33.33;;
81952;SDS011;71454;55.476;14.282;2024-03-02T05:27:30;87.03;;;35.42;;
81952;SDS011;71454;55.476;14.282;2024-03-02T05:29:56;79.65;;;34.47;;
81952;SDS011;71454;55.476;14.282;2024-03-02T05:32:21;77.57;;;34.47;;
81952;SDS011;71454;55.476;14.282;2024-03-02T05:34:46;72.03;;;33.45;;
81952;SDS011;71454;55.476;14.282;2024-03-02T05:37:12;73.43;;;34.17;;
81952;SDS011;71454;55.476;14.282;2024-03-02T05:39:37;73.20;;;32.13;;
81952;SDS011;71454;55.476;14.282;2024-03-02T05:42:02;75.30;;;32.65;;
81952;SDS011;71454;55.476;14.282;2024-03-02T05:44:28;76.18;;;33.70;;
81952;SDS011;71454;55.476;14.282;2024-03-02T05:46:53;67.28;;;31.60;;
81952;SDS011;71454;55.476;14.282;2024-03-02T05:49:18;72.10;;;32.63;;
81952;SDS011;71454;55.476;14.282;2024-03-02T05:51:44;72.72;;;31.50;;
81952;SDS011;71454;55.476;14.282;2024-03-02T05:54:09;68.53;;;32.00;;
81952;SDS011;71454;55.476;14.282;2024-03-02T05:56:35;68.63;;;31.77;;
81952;SDS011;71454;55.476;14.282;2024-03-02T05:59:00;78.72;;;34.33;;
81952;SDS011;71454;55.476;14.282;2024-03-02T06:01:44;78.78;;;34.85;;
81952;SDS011;71454;55.476;14.282;2024-03-02T06:04:10;69.30;;;31.40;;
81952;SDS011;71454;55.476;14.282;2024-03-02T06:06:38;83.35;;;34.10;;
81952;SDS011;71454;55.476;14.282;2024-03-02T06:09:04;80.82;;;34.38;;
81952;SDS011;71454;55.476;14.282;2024-03-02T06:11:33;77.75;;;33.85;;
81952;SDS011;71454;55.476;14.282;2024-03-02T06:13:58;74.22;;;34.05;;
81952;SDS011;71454;55.476;14.282;2024-03-02T06:16:24;75.87;;;32.77;;
81952;SDS011;71454;55.476;14.282;2024-03-02T06:18:49;67.80;;;30.85;;
81952;SDS011;71454;55.476;14.282;2024-03-02T06:21:14;74.43;;;32.97;;
81952;SDS011;71454;55.476;14.282;2024-03-02T06:23:39;73.53;;;31.83;;
81952;SDS011;71454;55.476;14.282;2024-03-02T06:26:05;75.40;;;32.80;;
81952;SDS011;71454;55.476;14.282;2024-03-02T06:28:30;68.13;;;30.55;;
81952;SDS011;71454;55.476;14.282;2024-03-02T06:30:55;72.45;;;33.13;;
81952;SDS011;71454;55.476;14.282;2024-03-02T06:33:21;68.53;;;30.65;;
81952;SDS011;71454;55.476;14.282;2024-03-02T06:35:46;64.35;;;29.08;;
81952;SDS011;71454;55.476;14.282;2024-03-02T06:38:11;68.53;;;30.88;;
81952;SDS011;71454;55.476;14.282;2024-03-02T06:40:36;68.30;;;30.33;;
81952;SDS011;71454;55.476;14.282;2024-03-02T06:43:04;69.30;;;32.10;;
81952;SDS011;71454;55.476;14.282;2024-03-02T06:45:29;64.43;;;30.30;;
81952;SDS011;71454;55.476;14.282;2024-03-02T06:47:55;65.05;;;29.50;;
81952;SDS011;71454;55.476;14.282;2024-03-02T06:50:21;70.50;;;33.08;;
81952;SDS011;71454;55.476;14.282;2024-03-02T06:52:46;68.88;;;31.05;;
81952;SDS011;71454;55.476;14.282;2024-03-02T06:55:11;66.27;;;28.90;;
81952;SDS011;71454;55.476;14.282;2024-03-02T06:57:37;67.33;;;32.07;;
81952;SDS011;71454;55.476;14.282;2024-03-02T07:00:02;67.97;;;29.95;;
81952;SDS011;71454;55.476;14.282;2024-03-02T07:02:30;63.90;;;30.67;;
81952;SDS011;71454;55.476;14.282;2024-03-02T07:04:55;68.65;;;32.08;;
81952;SDS011;71454;55.476;14.282;2024-03-02T07:07:20;64.78;;;31.00;;
81952;SDS011;71454;55.476;14.282;2024-03-02T07:09:46;61.75;;;30.50;;
81952;SDS011;71454;55.476;14.282;2024-03-02T07:12:11;68.28;;;30.55;;
81952;SDS011;71454;55.476;14.282;2024-03-02T07:14:36;65.22;;;30.02;;
81952;SDS011;71454;55.476;14.282;2024-03-02T07:17:20;63.33;;;30.13;;
81952;SDS011;71454;55.476;14.282;2024-03-02T07:19:45;65.97;;;28.93;;
81952;SDS011;71454;55.476;14.282;2024-03-02T07:22:11;66.28;;;30.60;;
81952;SDS011;71454;55.476;14.282;2024-03-02T07:24:40;61.13;;;29.77;;
81952;SDS011;71454;55.476;14.282;2024-03-02T07:27:06;61.78;;;30.70;;
81952;SDS011;71454;55.476;14.282;2024-03-02T07:29:32;66.63;;;31.88;;
81952;SDS011;71454;55.476;14.282;2024-03-02T07:31:57;69.65;;;30.30;;
81952;SDS011;71454;55.476;14.282;2024-03-02T07:34:22;66.45;;;30.83;;
81952;SDS011;71454;55.476;14.282;2024-03-02T07:36:47;66.27;;;28.33;;
81952;SDS011;71454;55.476;14.282;2024-03-02T07:39:13;66.13;;;28.07;;
81952;SDS011;71454;55.476;14.282;2024-03-02T07:41:38;65.00;;;29.50;;
81952;SDS011;71454;55.476;14.282;2024-03-02T07:44:03;66.20;;;28.65;;
81952;SDS011;71454;55.476;14.282;2024-03-02T07:46:29;61.72;;;28.70;;
81952;SDS011;71454;55.476;14.282;2024-03-02T07:48:54;60.85;;;29.63;;
81952;SDS011;71454;55.476;14.282;2024-03-02T07:51:19;64.82;;;29.23;;
81952;SDS011;71454;55.476;14.282;2024-03-02T07:53:44;62.83;;;28.77;;
81952;SDS011;71454;55.476;14.282;2024-03-02T07:56:10;66.37;;;28.67;;
81952;SDS011;71454;55.476;14.282;2024-03-02T07:58:35;63.28;;;30.17;;
81952;SDS011;71454;55.476;14.282;2024-03-02T08:01:01;63.13;;;29.00;;
81952;SDS011;71454;55.476;14.282;2024-03-02T08:03:27;56.80;;;25.17;;
81952;SDS011;71454;55.476;14.282;2024-03-02T08:05:52;58.38;;;27.23;;
81952;SDS011;71454;55.476;14.282;2024-03-02T08:08:17;66.78;;;30.15;;
81952;SDS011;71454;55.476;14.282;2024-03-02T08:10:43;63.60;;;28.52;;
81952;SDS011;71454;55.476;14.282;2024-03-02T08:13:08;63.63;;;29.75;;
81952;SDS011;71454;55.476;14.282;2024-03-02T08:15:33;59.30;;;28.47;;
81952;SDS011;71454;55.476;14.282;2024-03-02T08:17:59;59.10;;;29.53;;
81952;SDS011;71454;55.476;14.282;2024-03-02T08:20:24;60.03;;;27.08;;
81952;SDS011;71454;55.476;14.282;2024-03-02T08:22:49;64.65;;;28.98;;
81952;SDS011;71454;55.476;14.282;2024-03-02T08:25:15;64.55;;;29.17;;
81952;SDS011;71454;55.476;14.282;2024-03-02T08:27:41;59.70;;;26.55;;
81952;SDS011;71454;55.476;14.282;2024-03-02T08:30:06;59.40;;;26.60;;
81952;SDS011;71454;55.476;14.282;2024-03-02T08:32:33;57.30;;;25.00;;
81952;SDS011;71454;55.476;14.282;2024-03-02T08:34:58;55.77;;;25.40;;
81952;SDS011;71454;55.476;14.282;2024-03-02T08:37:23;54.53;;;25.87;;
81952;SDS011;71454;55.476;14.282;2024-03-02T08:39:49;59.20;;;27.27;;
81952;SDS011;71454;55.476;14.282;2024-03-02T08:42:15;60.58;;;26.05;;
81952;SDS011;71454;55.476;14.282;2024-03-02T08:44:40;57.20;;;26.50;;
81952;SDS011;71454;55.476;14.282;2024-03-02T08:47:05;56.10;;;25.37;;
81952;SDS011;71454;55.476;14.282;2024-03-02T08:49:31;54.50;;;23.73;;
81952;SDS011;71454;55.476;14.282;2024-03-02T08:51:56;53.28;;;25.92;;
81952;SDS011;71454;55.476;14.282;2024-03-02T08:54:21;53.40;;;23.57;;
81952;SDS011;71454;55.476;14.282;2024-03-02T08:56:47;54.17;;;26.83;;
81952;SDS011;71454;55.476;14.282;2024-03-02T08:59:13;57.55;;;26.13;;
81952;SDS011;71454;55.476;14.282;2024-03-02T09:01:38;56.30;;;25.95;;
81952;SDS011;71454;55.476;14.282;2024-03-02T09:04:06;56.15;;;25.98;;
81952;SDS011;71454;55.476;14.282;2024-03-02T09:06:32;57.47;;;26.33;;
81952;SDS011;71454;55.476;14.282;2024-03-02T09:08:57;68.90;;;27.38;;
81952;SDS011;71454;55.476;14.282;2024-03-02T09:11:23;64.57;;;27.80;;
81952;SDS011;71454;55.476;14.282;2024-03-02T09:13:48;65.65;;;28.95;;
81952;SDS011;71454;55.476;14.282;2024-03-02T09:16:14;56.60;;;26.70;;
81952;SDS011;71454;55.476;14.282;2024-03-02T09:18:39;59.75;;;26.80;;
81952;SDS011;71454;55.476;14.282;2024-03-02T09:21:04;57.00;;;25.58;;
81952;SDS011;71454;55.476;14.282;2024-03-02T09:23:30;54.08;;;24.60;;
81952;SDS011;71454;55.476;14.282;2024-03-02T09:25:55;52.22;;;25.10;;
81952;SDS011;71454;55.476;14.282;2024-03-02T09:28:20;52.77;;;24.10;;
81952;SDS011;71454;55.476;14.282;2024-03-02T09:30:45;51.85;;;23.95;;
81952;SDS011;71454;55.476;14.282;2024-03-02T09:33:11;52.30;;;22.70;;
81952;SDS011;71454;55.476;14.282;2024-03-02T09:35:36;48.63;;;24.23;;
81952;SDS011;71454;55.476;14.282;2024-03-02T09:38:01;48.90;;;24.00;;
81952;SDS011;71454;55.476;14.282;2024-03-02T09:40:28;49.85;;;25.35;;
81952;SDS011;71454;55.476;14.282;2024-03-02T09:42:54;61.78;;;26.27;;
81952;SDS011;71454;55.476;14.282;2024-03-02T09:45:23;60.22;;;26.02;;
81952;SDS011;71454;55.476;14.282;2024-03-02T09:47:48;70.60;;;27.10;;
81952;SDS011;71454;55.476;14.282;2024-03-02T09:50:14;68.22;;;26.98;;
81952;SDS011;71454;55.476;14.282;2024-03-02T09:52:39;68.43;;;29.67;;
81952;SDS011;71454;55.476;14.282;2024-03-02T09:55:05;71.88;;;26.58;;
81952;SDS011;71454;55.476;14.282;2024-03-02T09:57:30;63.25;;;26.30;;
81952;SDS011;71454;55.476;14.282;2024-03-02T09:59:56;57.40;;;25.52;;
81952;SDS011;71454;55.476;14.282;2024-03-02T10:02:21;52.60;;;25.35;;
81952;SDS011;71454;55.476;14.282;2024-03-02T10:04:47;57.97;;;25.38;;
81952;SDS011;71454;55.476;14.282;2024-03-02T10:07:14;58.85;;;26.85;;
81952;SDS011;71454;55.476;14.282;2024-03-02T10:09:46;58.97;;;26.67;;
81952;SDS011;71454;55.476;14.282;2024-03-02T10:12:13;59.88;;;25.73;;
81952;SDS011;71454;55.476;14.282;2024-03-02T10:14:39;57.13;;;25.05;;
81952;SDS011;71454;55.476;14.282;2024-03-02T10:17:05;61.33;;;27.73;;
81952;SDS011;71454;55.476;14.282;2024-03-02T10:19:30;70.55;;;26.27;;
81952;SDS011;71454;55.476;14.282;2024-03-02T10:22:00;62.13;;;25.20;;
81952;SDS011;71454;55.476;14.282;2024-03-02T10:24:25;60.40;;;27.13;;
81952;SDS011;71454;55.476;14.282;2024-03-02T10:26:51;67.18;;;28.08;;
81952;SDS011;71454;55.476;14.282;2024-03-02T10:29:17;62.47;;;27.55;;
81952;SDS011;71454;55.476;14.282;2024-03-02T10:31:46;66.80;;;26.95;;
81952;SDS011;71454;55.476;14.282;2024-03-02T10:34:12;62.95;;;26.58;;
81952;SDS011;71454;55.476;14.282;2024-03-02T10:36:37;65.78;;;27.27;;
81952;SDS011;71454;55.476;14.282;2024-03-02T10:39:05;63.33;;;27.20;;
81952;SDS011;71454;55.476;14.282;2024-03-02T10:41:34;63.92;;;28.33;;
81952;SDS011;71454;55.476;14.282;2024-03-02T10:44:01;61.03;;;25.00;;
81952;SDS011;71454;55.476;14.282;2024-03-02T10:46:28;58.30;;;24.33;;
81952;SDS011;71454;55.476;14.282;2024-03-02T10:48:57;63.80;;;26.48;;
81952;SDS011;71454;55.476;14.282;2024-03-02T10:51:24;57.85;;;25.13;;
81952;SDS011;71454;55.476;14.282;2024-03-02T10:53:49;61.55;;;24.63;;
81952;SDS011;71454;55.476;14.282;2024-03-02T10:56:16;60.03;;;25.85;;
81952;SDS011;71454;55.476;14.282;2024-03-02T10:58:47;63.55;;;26.90;;
81952;SDS011;71454;55.476;14.282;2024-03-02T11:01:14;61.33;;;27.08;;
81952;SDS011;71454;55.476;14.282;2024-03-02T11:03:39;63.80;;;25.27;;
81952;SDS011;71454;55.476;14.282;2024-03-02T11:06:07;61.10;;;25.90;;
81952;SDS011;71454;55.476;14.282;2024-03-02T11:08:32;65.53;;;28.10;;
81952;SDS011;71454;55.476;14.282;2024-03-02T11:10:58;65.38;;;27.02;;
81952;SDS011;71454;55.476;14.282;2024-03-02T11:13:31;58.58;;;25.08;;
81952;SDS011;71454;55.476;14.282;2024-03-02T11:15:58;62.85;;;26.67;;
81952;SDS011;71454;55.476;14.282;2024-03-02T11:18:24;68.65;;;27.83;;
81952;SDS011;71454;55.476;14.282;2024-03-02T11:20:50;70.20;;;28.30;;
81952;SDS011;71454;55.476;14.282;2024-03-02T11:23:15;66.47;;;28.33;;
81952;SDS011;71454;55.476;14.282;2024-03-02T11:25:41;69.00;;;27.03;;
81952;SDS011;71454;55.476;14.282;2024-03-02T11:28:06;72.93;;;28.00;;
81952;SDS011;71454;55.476;14.282;2024-03-02T11:33:03;69.30;;;28.13;;
81952;SDS011;71454;55.476;14.282;2024-03-02T11:35:38;65.78;;;28.10;;
81952;SDS011;71454;55.476;14.282;2024-03-02T11:38:06;55.65;;;25.02;;
81952;SDS011;71454;55.476;14.282;2024-03-02T11:40:32;72.55;;;26.58;;
81952;SDS011;71454;55.476;14.282;2024-03-02T11:42:59;65.70;;;28.50;;
81952;SDS011;71454;55.476;14.282;2024-03-02T11:45:24;65.97;;;27.13;;
81952;SDS011;71454;55.476;14.282;2024-03-02T11:47:50;63.90;;;27.17;;
81952;SDS011;71454;55.476;14.282;2024-03-02T11:50:15;67.47;;;27.48;;
81952;SDS011;71454;55.476;14.282;2024-03-02T11:52:41;53.85;;;23.40;;
81952;SDS011;71454;55.476;14.282;2024-03-02T11:55:07;64.63;;;26.50;;
81952;SDS011;71454;55.476;14.282;2024-03-02T11:57:34;71.82;;;28.25;;
81952;SDS011;71454;55.476;14.282;2024-03-02T12:00:00;64.50;;;28.15;;
81952;SDS011;71454;55.476;14.282;2024-03-02T12:02:28;70.72;;;29.02;;
81952;SDS011;71454;55.476;14.282;2024-03-02T12:04:54;64.90;;;27.15;;
81952;SDS011;71454;55.476;14.282;2024-03-02T12:07:20;66.47;;;27.48;;
81952;SDS011;71454;55.476;14.282;2024-03-02T12:09:47;67.68;;;26.73;;
81952;SDS011;71454;55.476;14.282;2024-03-02T12:12:12;65.97;;;28.90;;
81952;SDS011;71454;55.476;14.282;2024-03-02T12:14:49;61.55;;;26.33;;
81952;SDS011;71454;55.476;14.282;2024-03-02T12:17:14;62.95;;;27.42;;
81952;SDS011;71454;55.476;14.282;2024-03-02T12:19:40;66.00;;;25.52;;
81952;SDS011;71454;55.476;14.282;2024-03-02T12:22:05;63.63;;;28.10;;
81952;SDS011;71454;55.476;14.282;2024-03-02T12:24:30;67.57;;;25.55;;
81952;SDS011;71454;55.476;14.282;2024-03-02T12:26:56;60.08;;;24.88;;
81952;SDS011;71454;55.476;14.282;2024-03-02T12:29:22;68.35;;;27.00;;
81952;SDS011;71454;55.476;14.282;2024-03-02T12:31:49;59.72;;;26.33;;
81952;SDS011;71454;55.476;14.282;2024-03-02T12:34:15;65.93;;;26.88;;
81952;SDS011;71454;55.476;14.282;2024-03-02T12:36:40;62.70;;;26.50;;
81952;SDS011;71454;55.476;14.282;2024-03-02T12:39:07;67.18;;;27.55;;
81952;SDS011;71454;55.476;14.282;2024-03-02T12:41:33;68.35;;;27.10;;
81952;SDS011;71454;55.476;14.282;2024-03-02T12:44:00;65.65;;;26.90;;
81952;SDS011;71454;55.476;14.282;2024-03-02T12:46:25;62.97;;;25.98;;
81952;SDS011;71454;55.476;14.282;2024-03-02T12:48:51;70.75;;;27.70;;
81952;SDS011;71454;55.476;14.282;2024-03-02T12:51:16;65.72;;;27.55;;
81952;SDS011;71454;55.476;14.282;2024-03-02T12:53:41;75.57;;;28.02;;
81952;SDS011;71454;55.476;14.282;2024-03-02T12:56:07;64.50;;;26.85;;
81952;SDS011;71454;55.476;14.282;2024-03-02T12:58:38;62.83;;;25.80;;
81952;SDS011;71454;55.476;14.282;2024-03-02T13:03:29;63.92;;;26.05;;
81952;SDS011;71454;55.476;14.282;2024-03-02T13:05:54;67.03;;;25.80;;
81952;SDS011;71454;55.476;14.282;2024-03-02T13:08:19;65.10;;;26.40;;
81952;SDS011;71454;55.476;14.282;2024-03-02T13:10:44;68.77;;;27.70;;
81952;SDS011;71454;55.476;14.282;2024-03-02T13:13:10;69.55;;;25.23;;
81952;SDS011;71454;55.476;14.282;2024-03-02T13:15:35;58.58;;;25.77;;
81952;SDS011;71454;55.476;14.282;2024-03-02T13:18:01;59.80;;;26.25;;
81952;SDS011;71454;55.476;14.282;2024-03-02T13:20:32;54.13;;;24.42;;
81952;SDS011;71454;55.476;14.282;2024-03-02T13:22:58;61.58;;;26.25;;
81952;SDS011;71454;55.476;14.282;2024-03-02T13:25:23;60.95;;;26.38;;
81952;SDS011;71454;55.476;14.282;2024-03-02T13:27:48;57.53;;;25.50;;
81952;SDS011;71454;55.476;14.282;2024-03-02T13:30:13;57.17;;;24.67;;
81952;SDS011;71454;55.476;14.282;2024-03-02T13:32:39;58.53;;;25.03;;
81952;SDS011;71454;55.476;14.282;2024-03-02T13:35:04;57.63;;;26.00;;
81952;SDS011;71454;55.476;14.282;2024-03-02T13:37:30;61.08;;;24.42;;
81952;SDS011;71454;55.476;14.282;2024-03-02T13:39:55;55.35;;;24.25;;
81952;SDS011;71454;55.476;14.282;2024-03-02T13:42:20;62.53;;;27.47;;
81952;SDS011;71454;55.476;14.282;2024-03-02T13:44:46;62.05;;;25.92;;
81952;SDS011;71454;55.476;14.282;2024-03-02T13:47:13;60.92;;;25.30;;
81952;SDS011;71454;55.476;14.282;2024-03-02T13:49:38;61.17;;;27.57;;
81952;SDS011;71454;55.476;14.282;2024-03-02T13:52:08;62.40;;;26.38;;
81952;SDS011;71454;55.476;14.282;2024-03-02T13:54:41;64.80;;;29.15;;
81952;SDS011;71454;55.476;14.282;2024-03-02T13:57:07;71.70;;;30.15;;
81952;SDS011;71454;55.476;14.282;2024-03-02T13:59:33;73.82;;;29.90;;
81952;SDS011;71454;55.476;14.282;2024-03-02T14:01:58;67.20;;;28.48;;
81952;SDS011;71454;55.476;14.282;2024-03-02T14:04:24;66.13;;;28.85;;
81952;SDS011;71454;55.476;14.282;2024-03-02T14:06:49;69.43;;;28.77;;